KCKM

Fletcher Field Airport

Clarksdale, Mississippi, USA
METAR KCKM 171815Z AUTO 01007G13KT 10SM CLR 18/08 A3035 RMK A01
Observed Flight Rules
Oct-17 @ 18:15 UTC (5 minutes ago) Visual Flight Rules
Wind Visibility Clouds
10° at 7 knots
 Gusting to 13 knots
10 miles
  • Clear skies
Temperatures Readings
Current 18°C / 64°F
Dewpoint 8°C / 46°F
Humidity 52%
Altimeter 30.35" Hg
Pressure 1028 hPa
Elevation 53
METAR KCKM 171815Z AUTO 01007G13KT 10SM CLR 18/08 A3035 RMK A01
Observed Flight Rules
Oct-17 @ 18:15 UTC
(5 minutes ago)
VFR
Wind Visibility
10° at 7 knots
 Gusting to 13 knots
10 miles
Clouds
  • Clear skies
Temperature Dewpoint
18°C / 64°F 8°C / 46°F
Humidity Altimeter Pressure
52% 30.35" Hg 1028 hPa